Time;durP1;ratioP1;P1;durP2;ratioP2;P2;SDS_P1;SDS_P2;PMS_P1;PMS_P2;Temp;Humidity;BMP_temperature;BMP_pressure;BME280_temperature;BME280_humidity;BME280_pressure;Samples;Min_cycle;Max_cycle;Signal;HPM_P1;HPM_P2
2022/04/15 00:00:12;;;;;;;11.27;6.25;;;6.50;91.70;;;;;;5047616;28;20318;-65
2022/04/15 00:02:38;;;;;;;15.98;6.88;;;6.50;91.70;;;;;;5044094;28;20047;-65
2022/04/15 00:05:29;;;;;;;13.32;6.32;;;6.50;91.90;;;;;;5037256;28;20036;-65
2022/04/15 00:07:50;;;;;;;12.30;6.10;;;6.50;92.00;;;;;;5041920;28;20068;-65
2022/04/15 00:10:16;;;;;;;10.32;6.30;;;6.50;92.10;;;;;;5040138;28;20045;-65
2022/04/15 00:12:42;;;;;;;10.13;6.30;;;6.40;92.00;;;;;;5060200;28;20128;-65
2022/04/15 00:15:08;;;;;;;10.18;6.15;;;6.50;92.10;;;;;;5044971;28;20128;-65
2022/04/15 00:17:34;;;;;;;9.68;6.25;;;6.60;92.10;;;;;;5043602;28;20037;-66
2022/04/15 00:19:59;;;;;;;10.75;7.07;;;6.70;92.20;;;;;;5038877;28;20045;-65
2022/04/15 00:22:25;;;;;;;11.48;6.35;;;6.90;92.10;;;;;;5046360;28;20051;-65
2022/04/15 00:24:50;;;;;;;11.68;7.75;;;6.90;92.10;;;;;;5043937;28;20041;-65
2022/04/15 00:27:16;;;;;;;16.05;6.95;;;7.00;92.10;;;;;;5044204;28;20099;-65
2022/04/15 00:29:41;;;;;;;12.18;7.15;;;7.00;92.00;;;;;;5042497;28;20040;-66
2022/04/15 00:32:07;;;;;;;12.32;7.45;;;7.10;92.00;;;;;;5046150;28;20052;-65
2022/04/15 00:34:34;;;;;;;13.38;6.55;;;7.20;92.00;;;;;;5020584;28;20388;-65
2022/04/15 00:36:59;;;;;;;12.80;6.70;;;7.20;92.00;;;;;;5043992;28;20115;-65
2022/04/15 00:39:25;;;;;;;15.52;6.93;;;7.30;91.90;;;;;;5052729;28;22195;-65
2022/04/15 00:41:50;;;;;;;13.15;6.30;;;7.40;91.90;;;;;;5059282;28;20048;-65
2022/04/15 00:44:16;;;;;;;10.65;6.38;;;7.50;91.90;;;;;;5047026;28;20040;-65
2022/04/15 00:46:41;;;;;;;14.68;6.95;;;7.50;91.90;;;;;;5044169;28;20076;-65
2022/04/15 00:49:07;;;;;;;13.30;7.15;;;7.60;91.80;;;;;;5044310;28;20453;-65
2022/04/15 00:51:36;;;;;;;10.40;6.70;;;7.70;91.70;;;;;;5048361;28;20075;-65
2022/04/15 00:54:03;;;;;;;11.02;6.40;;;7.60;91.70;;;;;;5047581;28;20037;-65
2022/04/15 00:56:33;;;;;;;12.50;7.30;;;7.70;91.70;;;;;;5031103;28;20358;-65
2022/04/15 00:59:01;;;;;;;14.43;6.93;;;7.80;91.70;;;;;;5045819;28;20460;-65
2022/04/15 01:01:27;;;;;;;13.20;6.13;;;7.90;91.50;;;;;;5049093;28;20052;-65
2022/04/15 01:03:55;;;;;;;12.98;6.82;;;7.90;91.50;;;;;;5051162;28;20071;-65
2022/04/15 01:06:24;;;;;;;13.80;7.30;;;8.00;91.40;;;;;;5025315;28;20112;-65
2022/04/15 01:08:53;;;;;;;13.90;7.15;;;8.00;91.40;;;;;;5042823;28;20061;-66
2022/04/15 01:11:21;;;;;;;10.60;6.45;;;8.00;91.50;;;;;;5049011;28;20090;-66
2022/04/15 01:13:47;;;;;;;14.77;7.30;;;8.00;91.30;;;;;;5063170;28;20129;-65
2022/04/15 01:16:14;;;;;;;13.02;7.18;;;8.00;91.50;;;;;;5034595;28;20127;-65
2022/04/15 01:18:40;;;;;;;12.90;6.95;;;8.10;91.50;;;;;;5042711;28;20140;-65
2022/04/15 01:21:07;;;;;;;12.02;7.00;;;8.10;91.40;;;;;;5048987;28;20239;-65
2022/04/15 01:23:32;;;;;;;10.93;6.60;;;8.10;91.40;;;;;;5048690;28;20048;-65
2022/04/15 01:25:58;;;;;;;9.95;6.55;;;8.20;91.40;;;;;;5046833;28;20115;-65
2022/04/15 01:28:24;;;;;;;11.35;6.55;;;8.10;91.30;;;;;;5049602;28;20060;-65
2022/04/15 01:30:50;;;;;;;15.48;6.72;;;8.20;91.40;;;;;;5049064;28;20496;-65
2022/04/15 01:33:16;;;;;;;11.73;6.70;;;8.30;91.30;;;;;;5045977;28;20613;-65
2022/04/15 01:35:42;;;;;;;13.75;6.63;;;8.30;91.30;;;;;;5046001;28;20095;-65
2022/04/15 01:38:12;;;;;;;10.02;6.25;;;8.20;91.30;;;;;;5044571;28;20049;-65
2022/04/15 01:40:38;;;;;;;;;;;8.20;91.40;;;;;;5046745;28;20095;-65
2022/04/15 01:43:04;;;;;;;12.40;6.05;;;8.20;92.00;;;;;;5061200;28;19916;-65
2022/04/15 01:45:30;;;;;;;10.23;6.60;;;8.20;91.50;;;;;;5049125;28;20483;-65
2022/04/15 01:47:55;;;;;;;12.23;6.32;;;8.20;91.50;;;;;;5047298;28;20049;-65
2022/04/15 01:50:23;;;;;;;11.02;7.45;;;8.20;91.40;;;;;;5048224;28;20043;-65
2022/04/15 01:52:49;;;;;;;12.95;7.25;;;8.20;91.40;;;;;;5046828;28;20056;-65
2022/04/15 01:55:14;;;;;;;12.45;7.72;;;8.10;91.50;;;;;;5044418;28;20040;-65
2022/04/15 01:57:40;;;;;;;12.23;7.57;;;8.10;91.50;;;;;;5048518;28;20415;-65
2022/04/15 02:00:06;;;;;;;12.10;6.82;;;8.10;91.60;;;;;;5044329;28;20033;-65
2022/04/15 02:02:32;;;;;;;15.05;7.30;;;8.10;91.70;;;;;;5063519;28;20119;-65
2022/04/15 02:04:59;;;;;;;9.38;6.50;;;8.10;91.60;;;;;;5048165;28;20651;-70
2022/04/15 02:07:24;;;;;;;12.25;6.82;;;8.10;91.60;;;;;;5044193;28;20126;-65
2022/04/15 02:09:50;;;;;;;15.25;7.15;;;8.10;91.60;;;;;;5055880;28;20072;-65
2022/04/15 02:12:15;;;;;;;13.98;7.10;;;8.20;91.80;;;;;;5062828;28;20124;-65
2022/04/15 02:14:41;;;;;;;12.38;7.32;;;8.20;91.80;;;;;;5047310;28;20493;-65
2022/04/15 02:17:06;;;;;;;12.30;7.15;;;8.20;91.80;;;;;;5046910;28;20033;-65
2022/04/15 02:19:32;;;;;;;13.98;7.55;;;8.20;91.80;;;;;;5047841;28;20404;-65
2022/04/15 02:21:57;;;;;;;10.93;7.07;;;8.10;91.80;;;;;;5043475;28;20167;-65
2022/04/15 02:24:23;;;;;;;13.02;6.90;;;8.10;91.80;;;;;;5041160;28;20041;-65
2022/04/15 02:26:48;;;;;;;10.23;6.75;;;8.10;91.80;;;;;;5045496;28;20041;-65
2022/04/15 02:29:14;;;;;;;12.13;7.57;;;8.20;91.80;;;;;;5046059;28;20071;-65
2022/04/15 02:31:40;;;;;;;13.05;6.75;;;8.20;91.80;;;;;;5043704;28;20060;-65
2022/04/15 02:34:05;;;;;;;11.23;7.15;;;8.20;91.80;;;;;;5045889;28;20452;-65
2022/04/15 02:36:31;;;;;;;12.68;7.05;;;8.20;91.80;;;;;;5059766;28;20036;-65
2022/04/15 02:38:56;;;;;;;15.43;6.47;;;8.20;91.80;;;;;;5045346;28;20048;-65
2022/04/15 02:41:22;;;;;;;14.98;7.13;;;8.20;91.90;;;;;;5045522;28;20052;-65
2022/04/15 02:43:48;;;;;;;11.10;7.00;;;8.20;91.80;;;;;;5044441;28;20576;-65
2022/04/15 02:46:14;;;;;;;10.38;7.20;;;8.20;91.90;;;;;;5046425;28;20057;-65
2022/04/15 02:48:39;;;;;;;11.80;6.65;;;8.20;91.80;;;;;;5041960;28;20036;-65
2022/04/15 02:51:05;;;;;;;11.82;6.35;;;8.30;91.80;;;;;;5046737;28;20041;-65
2022/04/15 02:53:32;;;;;;;8.43;6.10;;;8.30;91.80;;;;;;5058630;28;20033;-66
2022/04/15 02:55:57;;;;;;;9.50;5.97;;;8.30;91.70;;;;;;5060860;28;20138;-65
2022/04/15 02:58:24;;;;;;;10.85;6.32;;;8.40;91.60;;;;;;5045995;28;20110;-65
2022/04/15 03:00:49;;;;;;;14.85;6.03;;;8.40;91.50;;;;;;5038913;28;20049;-65
2022/04/15 03:03:15;;;;;;;9.15;6.05;;;8.40;91.50;;;;;;5044818;28;20036;-65
2022/04/15 03:05:41;;;;;;;10.73;6.07;;;8.50;91.50;;;;;;5048888;28;20142;-65
2022/04/15 03:08:07;;;;;;;11.15;5.95;;;8.50;91.40;;;;;;5030359;28;20037;-65
2022/04/15 03:10:33;;;;;;;11.63;6.35;;;8.50;91.40;;;;;;5039919;28;20048;-65
2022/04/15 03:12:59;;;;;;;8.07;5.82;;;8.50;91.30;;;;;;5039328;28;20401;-65
2022/04/15 03:15:24;;;;;;;10.88;5.10;;;8.50;91.20;;;;;;5048753;28;20048;-65
2022/04/15 03:17:50;;;;;;;8.43;5.28;;;8.50;91.20;;;;;;5042144;28;20055;-65
2022/04/15 03:20:16;;;;;;;10.65;5.05;;;8.50;91.10;;;;;;5063267;28;20072;-64
2022/04/15 03:22:43;;;;;;;8.27;5.07;;;8.50;91.00;;;;;;5046351;28;20444;-65
2022/04/15 03:25:12;;;;;;;12.35;5.00;;;8.50;91.00;;;;;;5058480;28;20083;-65
2022/04/15 03:27:37;;;;;;;8.95;5.10;;;8.60;90.80;;;;;;5044995;28;22184;-65
2022/04/15 03:30:04;;;;;;;8.32;4.72;;;8.60;90.70;;;;;;5044655;28;20033;-65
2022/04/15 03:32:30;;;;;;;11.23;4.57;;;8.60;90.70;;;;;;5046356;28;20045;-65
2022/04/15 03:34:57;;;;;;;9.60;4.80;;;8.60;90.70;;;;;;5057240;28;20040;-65
2022/04/15 03:37:23;;;;;;;10.52;4.53;;;8.60;90.60;;;;;;5043459;28;20048;-65
2022/04/15 03:39:49;;;;;;;8.30;4.38;;;8.60;90.60;;;;;;5046751;28;20454;-65
2022/04/15 03:42:15;;;;;;;9.40;4.35;;;8.70;90.50;;;;;;5031631;28;20124;-65
2022/04/15 03:44:40;;;;;;;9.35;5.28;;;8.70;90.50;;;;;;5043116;28;20611;-65
2022/04/15 03:47:06;;;;;;;10.75;5.55;;;8.70;90.50;;;;;;5045702;28;20041;-65
2022/04/15 03:49:33;;;;;;;8.90;5.93;;;8.80;90.50;;;;;;5042786;28;20195;-64
2022/04/15 03:52:00;;;;;;;13.23;7.00;;;8.70;90.50;;;;;;5046748;28;20033;-65
2022/04/15 03:54:26;;;;;;;19.17;7.85;;;8.70;90.50;;;;;;5040180;28;20033;-64
2022/04/15 03:56:51;;;;;;;16.35;8.80;;;8.80;90.60;;;;;;5046042;28;20053;-65
2022/04/15 03:59:17;;;;;;;14.80;8.45;;;8.70;90.70;;;;;;5045767;28;20243;-65
2022/04/15 04:01:43;;;;;;;18.92;9.75;;;8.70;90.80;;;;;;5043522;28;20407;-64
2022/04/15 04:04:09;;;;;;;18.77;10.38;;;8.70;90.80;;;;;;5043391;28;20503;-65
2022/04/15 04:06:35;;;;;;;17.17;9.80;;;8.70;90.90;;;;;;5045785;28;20354;-64
2022/04/15 04:09:01;;;;;;;17.88;10.77;;;8.60;91.00;;;;;;5044266;28;20049;-65
2022/04/15 04:11:26;;;;;;;18.15;10.00;;;8.60;91.00;;;;;;5060996;28;20037;-64
2022/04/15 04:13:52;;;;;;;17.58;10.27;;;8.60;91.00;;;;;;5044684;28;20047;-65
2022/04/15 04:16:18;;;;;;;19.30;10.15;;;8.60;90.90;;;;;;5027949;28;20054;-64
2022/04/15 04:18:44;;;;;;;16.92;10.23;;;8.60;91.00;;;;;;5036520;28;20056;-65
2022/04/15 04:21:10;;;;;;;17.70;10.55;;;8.60;91.00;;;;;;5047606;28;20474;-65
2022/04/15 04:23:36;;;;;;;17.83;10.68;;;8.60;91.10;;;;;;5042896;28;20032;-65
2022/04/15 04:26:03;;;;;;;15.43;9.75;;;8.60;91.00;;;;;;5043918;28;20037;-65
2022/04/15 04:28:29;;;;;;;12.85;8.02;;;8.60;91.00;;;;;;5044351;28;20049;-65
2022/04/15 04:30:54;;;;;;;11.10;7.88;;;8.60;90.90;;;;;;5042757;28;20059;-66
2022/04/15 04:33:21;;;;;;;11.13;7.20;;;8.40;90.80;;;;;;5043920;28;20412;-66
2022/04/15 04:35:47;;;;;;;9.57;7.20;;;8.50;90.70;;;;;;5041130;28;20049;-65
2022/04/15 04:38:12;;;;;;;9.82;6.70;;;8.40;90.70;;;;;;5043098;28;20037;-64
2022/04/15 04:40:39;;;;;;;9.25;6.82;;;8.40;90.50;;;;;;5040826;28;20491;-64
2022/04/15 04:43:05;;;;;;;10.82;7.03;;;8.40;90.50;;;;;;5041332;28;20042;-65
2022/04/15 04:45:32;;;;;;;9.80;7.18;;;8.30;90.50;;;;;;5046264;28;20037;-64
2022/04/15 04:48:00;;;;;;;9.75;6.88;;;8.30;90.50;;;;;;5042483;28;20250;-65
2022/04/15 04:50:26;;;;;;;11.70;6.47;;;8.30;90.40;;;;;;5040722;28;20045;-65
2022/04/15 04:52:52;;;;;;;9.15;6.57;;;8.30;90.30;;;;;;5059334;28;20048;-65
2022/04/15 04:55:18;;;;;;;10.10;6.40;;;8.30;90.40;;;;;;5042481;28;20511;-64
2022/04/15 04:57:44;;;;;;;9.82;6.85;;;8.30;90.40;;;;;;5061592;28;20037;-65
2022/04/15 05:00:11;;;;;;;8.43;6.88;;;8.30;90.30;;;;;;5041653;28;20041;-65
2022/04/15 05:02:38;;;;;;;10.15;6.25;;;8.30;90.30;;;;;;5040766;28;20091;-65
2022/04/15 05:05:04;;;;;;;11.80;6.65;;;8.30;90.30;;;;;;5045302;28;20049;-65
2022/04/15 05:07:30;;;;;;;9.25;6.82;;;8.20;90.30;;;;;;5037852;28;20037;-64
2022/04/15 05:09:56;;;;;;;11.05;6.80;;;8.30;90.20;;;;;;5043695;28;20052;-65
2022/04/15 05:12:22;;;;;;;9.55;6.90;;;8.30;90.20;;;;;;5031717;28;20076;-65
2022/04/15 05:14:48;;;;;;;10.63;7.03;;;8.30;90.20;;;;;;5044848;28;20081;-65
2022/04/15 05:17:14;;;;;;;11.18;6.70;;;8.30;90.20;;;;;;5039715;28;20040;-65
2022/04/15 05:19:39;;;;;;;9.73;6.40;;;8.30;90.20;;;;;;5050011;28;20470;-65
2022/04/15 05:22:05;;;;;;;11.25;6.85;;;8.40;90.20;;;;;;5042055;28;20037;-65
2022/04/15 05:24:30;;;;;;;9.82;6.47;;;8.30;90.10;;;;;;5049217;28;20037;-64
2022/04/15 05:26:56;;;;;;;9.52;6.35;;;8.30;90.10;;;;;;5061077;28;20041;-65
2022/04/15 05:29:22;;;;;;;8.75;6.03;;;8.30;90.10;;;;;;5039400;28;20049;-65
2022/04/15 05:31:47;;;;;;;6.82;5.05;;;8.30;90.10;;;;;;5044158;28;20128;-64
2022/04/15 05:34:13;;;;;;;10.73;5.65;;;8.20;90.00;;;;;;5047761;28;20485;-65
2022/04/15 05:36:38;;;;;;;9.18;5.88;;;8.20;89.90;;;;;;5039432;28;20078;-65
2022/04/15 05:39:04;;;;;;;7.57;4.72;;;8.20;89.50;;;;;;5063242;28;20043;-69
2022/04/15 05:41:29;;;;;;;7.68;5.07;;;8.30;89.40;;;;;;5041242;28;20040;-64
2022/04/15 05:43:57;;;;;;;6.55;4.93;;;8.30;89.20;;;;;;5040364;28;20688;-64
2022/04/15 05:46:23;;;;;;;7.85;4.95;;;8.20;89.30;;;;;;5045230;28;20040;-65
2022/04/15 05:48:48;;;;;;;7.40;5.05;;;8.20;89.30;;;;;;5027076;28;20138;-65
2022/04/15 05:51:14;;;;;;;6.75;5.18;;;8.20;89.20;;;;;;5043652;28;20037;-64
2022/04/15 05:53:39;;;;;;;8.25;5.45;;;8.10;89.20;;;;;;5043520;28;20123;-64
2022/04/15 05:56:05;;;;;;;8.02;5.75;;;8.20;89.30;;;;;;5044952;28;20047;-65
2022/04/15 05:58:31;;;;;;;7.43;5.70;;;8.10;89.50;;;;;;5040376;28;20124;-64
2022/04/15 06:00:56;;;;;;;7.25;6.20;;;8.20;89.30;;;;;;5042297;28;20208;-65
2022/04/15 06:03:22;;;;;;;9.20;5.90;;;8.20;89.30;;;;;;5047884;28;20187;-64
2022/04/15 06:05:49;;;;;;;7.03;5.60;;;8.20;89.40;;;;;;5037200;28;20041;-67
2022/04/15 06:08:15;;;;;;;11.85;6.53;;;8.20;89.40;;;;;;5047924;28;20033;-65
2022/04/15 06:10:41;;;;;;;8.35;6.70;;;8.20;89.40;;;;;;5045950;28;20045;-64
2022/04/15 06:13:13;;;;;;;9.43;6.53;;;8.10;89.70;;;;;;5043749;28;20041;-64
2022/04/15 06:15:41;;;;;;;9.40;6.50;;;8.10;89.90;;;;;;5046756;28;20052;-64
2022/04/15 06:18:07;;;;;;;11.25;6.53;;;8.20;89.90;;;;;;5040203;28;20787;-64
2022/04/15 06:20:34;;;;;;;12.05;6.03;;;8.20;89.80;;;;;;5046043;28;20044;-65
2022/04/15 06:23:00;;;;;;;9.10;6.05;;;8.20;89.80;;;;;;5043290;28;20071;-64
2022/04/15 06:25:26;;;;;;;9.25;6.00;;;8.20;89.80;;;;;;5045712;28;20457;-64
2022/04/15 06:27:54;;;;;;;8.82;6.25;;;8.20;89.80;;;;;;5030228;28;20146;-64
2022/04/15 06:30:21;;;;;;;7.07;4.95;;;8.20;89.70;;;;;;5053370;28;20472;-64
2022/04/15 06:32:47;;;;;;;7.28;5.20;;;8.30;89.50;;;;;;5054813;28;20085;-64
2022/04/15 06:35:13;;;;;;;6.45;5.28;;;8.30;89.40;;;;;;5050212;28;20043;-65
2022/04/15 06:37:39;;;;;;;8.85;5.57;;;8.30;89.40;;;;;;5045670;28;20185;-64
2022/04/15 06:40:05;;;;;;;8.98;5.75;;;8.30;89.50;;;;;;5045131;28;20167;-64
2022/04/15 06:42:31;;;;;;;9.45;6.07;;;8.40;89.50;;;;;;5042374;28;20037;-65
2022/04/15 06:44:59;;;;;;;13.13;7.05;;;8.40;89.50;;;;;;5050581;28;20033;-65
2022/04/15 06:47:24;;;;;;;10.82;6.13;;;8.40;89.50;;;;;;5051030;28;20378;-64
2022/04/15 06:49:50;;;;;;;16.05;6.85;;;8.40;89.50;;;;;;5047908;28;20098;-64
2022/04/15 06:52:17;;;;;;;12.65;7.53;;;8.50;89.50;;;;;;5049274;28;20041;-64
2022/04/15 06:54:43;;;;;;;10.80;6.38;;;8.60;89.30;;;;;;5062723;28;20541;-65
2022/04/15 06:57:12;;;;;;;12.88;7.13;;;8.60;89.20;;;;;;5048988;28;20044;-67
2022/04/15 06:59:38;;;;;;;9.70;7.20;;;8.70;89.30;;;;;;5048160;28;20041;-66
2022/04/15 07:02:04;;;;;;;10.75;6.50;;;8.70;89.30;;;;;;5048239;28;20484;-64
2022/04/15 07:04:32;;;;;;;11.30;7.60;;;8.80;89.30;;;;;;5045870;28;20084;-64
2022/04/15 07:06:57;;;;;;;10.30;6.82;;;8.80;89.20;;;;;;5041345;28;20669;-65
2022/04/15 07:09:23;;;;;;;14.18;7.47;;;8.80;89.00;;;;;;5047945;28;20068;-65
2022/04/15 07:11:50;;;;;;;15.98;8.35;;;8.80;88.90;;;;;;5048425;28;20124;-65
2022/04/15 07:14:16;;;;;;;15.75;9.18;;;8.80;88.80;;;;;;5048929;28;20610;-65
2022/04/15 07:16:42;;;;;;;16.30;9.05;;;8.80;89.10;;;;;;5045416;28;20099;-65
2022/04/15 07:19:07;;;;;;;14.35;9.07;;;8.90;89.10;;;;;;5040228;28;20511;-67
2022/04/15 07:21:44;;;;;;;15.77;8.68;;;9.00;89.00;;;;;;5064264;28;20706;-65
2022/04/15 07:24:10;;;;;;;15.82;8.50;;;9.00;88.70;;;;;;5062843;28;20040;-65
2022/04/15 07:26:36;;;;;;;14.60;8.93;;;9.20;88.60;;;;;;5057189;28;20039;-65
2022/04/15 07:29:02;;;;;;;15.70;8.75;;;9.20;88.40;;;;;;5061643;28;20057;-65
2022/04/15 07:31:27;;;;;;;17.48;9.77;;;9.30;88.80;;;;;;5064348;28;20036;-65
2022/04/15 07:33:53;;;;;;;19.30;10.38;;;9.30;87.90;;;;;;5048473;28;20048;-65
2022/04/15 07:39:00;;;;;;;;;;;9.40;87.90;;;;;;5047050;28;20509;-65
2022/04/15 07:41:25;;;;;;;19.70;9.88;;;9.50;87.60;;;;;;5045969;28;20050;-64
2022/04/15 07:43:51;;;;;;;19.60;10.85;;;9.50;87.70;;;;;;5046122;28;20787;-65
2022/04/15 07:46:17;;;;;;;21.30;10.55;;;9.50;87.40;;;;;;5047995;28;20376;-65
2022/04/15 07:48:42;;;;;;;22.25;11.80;;;9.50;87.30;;;;;;5047654;28;20059;-65
2022/04/15 07:51:09;;;;;;;22.65;12.02;;;9.50;87.20;;;;;;5047198;28;20037;-65
2022/04/15 07:53:35;;;;;;;18.55;11.15;;;9.50;87.00;;;;;;5046433;28;20110;-65
2022/04/15 07:56:01;;;;;;;21.20;10.95;;;9.60;86.70;;;;;;5045420;28;20049;-65
2022/04/15 07:58:27;;;;;;;22.42;10.18;;;9.50;86.40;;;;;;5047781;28;20569;-65
2022/04/15 08:00:53;;;;;;;20.77;10.35;;;9.60;86.10;;;;;;5048739;28;20059;-65
2022/04/15 08:03:20;;;;;;;20.65;9.82;;;9.70;85.90;;;;;;5047839;28;20041;-65
2022/04/15 08:05:46;;;;;;;17.88;10.00;;;9.70;85.30;;;;;;5065237;28;20624;-65
2022/04/15 08:08:12;;;;;;;21.38;9.85;;;9.90;85.20;;;;;;5046083;28;20037;-66
2022/04/15 08:10:37;;;;;;;15.32;8.60;;;10.00;84.70;;;;;;5030459;28;20029;-66
2022/04/15 08:13:03;;;;;;;16.48;9.15;;;10.10;84.20;;;;;;5047028;28;20033;-65
2022/04/15 08:15:29;;;;;;;13.52;8.18;;;10.10;83.60;;;;;;5049710;28;20043;-65
2022/04/15 08:17:54;;;;;;;14.93;8.27;;;10.20;83.40;;;;;;5046710;28;20047;-65
2022/04/15 08:20:20;;;;;;;14.73;8.75;;;10.20;83.10;;;;;;5048172;28;20067;-65
2022/04/15 08:22:46;;;;;;;16.98;9.18;;;10.20;82.90;;;;;;5045952;28;20451;-65
2022/04/15 08:25:11;;;;;;;16.80;9.23;;;10.30;82.80;;;;;;5025653;28;20040;-65
2022/04/15 08:27:37;;;;;;;17.13;9.15;;;10.30;82.60;;;;;;5049778;28;20060;-66
2022/04/15 08:30:03;;;;;;;17.10;8.60;;;10.20;82.50;;;;;;5031584;28;20124;-65
2022/04/15 08:32:33;;;;;;;14.40;7.30;;;10.20;82.90;;;;;;5046731;28;20068;-65
2022/04/15 08:35:07;;;;;;;15.65;7.65;;;10.10;82.70;;;;;;5047619;28;20049;-64
2022/04/15 08:37:33;;;;;;;12.95;7.50;;;10.20;82.10;;;;;;5062689;28;20152;-65
2022/04/15 08:40:03;;;;;;;16.83;7.63;;;10.30;82.30;;;;;;5062632;28;20124;-65
2022/04/15 08:42:30;;;;;;;11.95;6.63;;;10.40;82.00;;;;;;5046575;28;20041;-65
2022/04/15 08:44:56;;;;;;;12.25;6.80;;;10.40;81.50;;;;;;5048374;28;20045;-66
2022/04/15 08:47:24;;;;;;;12.10;6.93;;;10.40;81.30;;;;;;5048879;28;20039;-65
2022/04/15 08:49:49;;;;;;;12.60;6.38;;;10.40;81.10;;;;;;5048667;28;20135;-65
2022/04/15 08:52:17;;;;;;;9.82;6.25;;;10.50;80.60;;;;;;5046062;28;20137;-66
2022/04/15 08:54:44;;;;;;;11.02;5.97;;;10.60;80.90;;;;;;5046299;28;20103;-66
2022/04/15 08:57:10;;;;;;;11.70;6.07;;;10.60;80.60;;;;;;5046413;28;20065;-66
2022/04/15 08:59:36;;;;;;;9.63;6.40;;;10.80;80.40;;;;;;5062781;28;20124;-65
2022/04/15 09:02:01;;;;;;;11.00;6.78;;;10.80;80.10;;;;;;5037232;28;20128;-66
2022/04/15 09:04:27;;;;;;;14.63;5.70;;;10.90;79.50;;;;;;5056096;28;20048;-66
2022/04/15 09:07:00;;;;;;;10.15;6.10;;;11.00;78.90;;;;;;5063713;28;20055;-65
2022/04/15 09:09:30;;;;;;;10.27;5.53;;;11.00;78.20;;;;;;5037112;28;20045;-65
2022/04/15 09:11:57;;;;;;;13.55;6.20;;;11.00;77.90;;;;;;5050359;28;20123;-65
2022/04/15 09:14:24;;;;;;;8.95;5.68;;;11.10;78.50;;;;;;5051124;28;20055;-66
2022/04/15 09:16:50;;;;;;;11.43;5.80;;;11.20;78.10;;;;;;5045672;28;20267;-66
2022/04/15 09:19:19;;;;;;;12.40;6.07;;;11.30;77.70;;;;;;5014836;28;20159;-66
2022/04/15 09:21:55;;;;;;;9.93;5.95;;;11.60;77.30;;;;;;5048516;28;20868;-65
2022/04/15 09:24:32;;;;;;;11.23;5.80;;;11.70;76.10;;;;;;5049508;28;20036;-66
2022/04/15 09:27:01;;;;;;;9.23;5.55;;;11.80;75.90;;;;;;5050437;28;20864;-65
2022/04/15 09:29:33;;;;;;;10.57;5.57;;;11.90;76.20;;;;;;5051752;28;20052;-66
2022/04/15 09:32:08;;;;;;;11.10;6.03;;;11.90;75.10;;;;;;5048875;28;20420;-65
2022/04/15 09:34:34;;;;;;;9.25;6.80;;;11.90;74.60;;;;;;5033230;28;20037;-66
2022/04/15 09:37:05;;;;;;;11.55;5.95;;;11.90;75.20;;;;;;5050706;28;20154;-66
2022/04/15 09:39:31;;;;;;;10.00;5.93;;;12.00;74.60;;;;;;5065271;28;20059;-65
2022/04/15 09:41:56;;;;;;;8.20;6.30;;;12.10;74.50;;;;;;5048662;28;20131;-65
2022/04/15 09:44:31;;;;;;;15.65;6.75;;;12.20;74.00;;;;;;5050737;28;20044;-65
2022/04/15 09:46:57;;;;;;;14.35;5.72;;;12.20;73.90;;;;;;5050492;28;20111;-66
2022/04/15 09:49:25;;;;;;;10.65;5.53;;;12.20;74.10;;;;;;5049406;28;20036;-67
2022/04/15 09:51:51;;;;;;;9.82;6.00;;;12.40;72.90;;;;;;5051069;28;20111;-66
2022/04/15 09:54:38;;;;;;;11.50;6.20;;;12.70;72.90;;;;;;5047186;28;20472;-66
2022/04/15 09:57:04;;;;;;;8.65;5.43;;;13.10;70.50;;;;;;5033925;28;20051;-66
2022/04/15 09:59:30;;;;;;;10.30;5.80;;;13.40;70.80;;;;;;5035551;28;20376;-66
2022/04/15 10:01:57;;;;;;;10.70;5.53;;;13.60;70.20;;;;;;5049225;28;20049;-66
2022/04/15 10:04:24;;;;;;;10.50;5.88;;;13.90;69.30;;;;;;5050714;28;20044;-66
2022/04/15 10:06:50;;;;;;;10.77;6.28;;;13.90;68.70;;;;;;5049901;28;20120;-67
2022/04/15 10:09:16;;;;;;;10.43;5.60;;;13.90;68.70;;;;;;5048972;28;20045;-65
2022/04/15 10:11:44;;;;;;;10.70;6.25;;;13.80;68.70;;;;;;5048601;28;20118;-66
2022/04/15 10:14:11;;;;;;;9.65;5.90;;;13.70;68.30;;;;;;5050123;28;20043;-65
2022/04/15 10:16:38;;;;;;;9.80;5.28;;;13.70;68.50;;;;;;5052336;28;20102;-66
2022/04/15 10:19:05;;;;;;;8.43;5.40;;;13.60;68.50;;;;;;5049507;28;20056;-66
2022/04/15 10:21:37;;;;;;;8.27;5.55;;;13.50;68.50;;;;;;5050997;28;20063;-66
2022/04/15 10:24:04;;;;;;;8.77;6.07;;;13.50;68.10;;;;;;5048118;28;20072;-66
2022/04/15 10:26:44;;;;;;;8.55;5.68;;;13.30;68.60;;;;;;5032018;28;20045;-66
2022/04/15 10:29:10;;;;;;;;;;;13.40;67.20;;;;;;5051571;28;20092;-66
2022/04/15 10:31:48;;;;;;;11.07;5.65;;;13.40;66.40;;;;;;5045989;28;19966;-65
2022/04/15 10:34:16;;;;;;;10.65;6.20;;;13.40;69.80;;;;;;5049917;28;20056;-66
2022/04/15 10:36:49;;;;;;;11.02;6.28;;;13.40;68.90;;;;;;5046764;28;20582;-65
2022/04/15 10:39:18;;;;;;;11.68;7.15;;;13.30;68.10;;;;;;5039743;28;20034;-66
2022/04/15 10:41:48;;;;;;;10.43;5.95;;;13.20;68.80;;;;;;5030985;28;20052;-67
2022/04/15 10:44:36;;;;;;;9.52;7.10;;;13.10;69.10;;;;;;5043891;28;20067;-66
2022/04/15 10:47:22;;;;;;;9.57;6.47;;;13.10;68.50;;;;;;5045652;28;20124;-66
2022/04/15 10:50:01;;;;;;;8.50;6.45;;;13.10;68.80;;;;;;5036420;28;20041;-66
2022/04/15 10:52:30;;;;;;;12.73;7.10;;;13.10;69.10;;;;;;5031904;28;20114;-66
2022/04/15 10:55:02;;;;;;;8.30;5.70;;;13.20;69.00;;;;;;5037900;28;20053;-66
2022/04/15 10:57:41;;;;;;;12.45;6.95;;;13.30;68.40;;;;;;5037368;28;20057;-67
2022/04/15 11:02:56;;;;;;;9.68;6.15;;;13.30;68.20;;;;;;5053279;28;20056;-66
2022/04/15 11:05:51;;;;;;;10.90;6.65;;;13.40;67.80;;;;;;5063671;28;20044;-66
2022/04/15 11:08:22;;;;;;;10.43;6.40;;;13.30;66.10;;;;;;5049079;28;20448;-66
2022/04/15 11:11:02;;;;;;;10.77;6.72;;;13.30;67.60;;;;;;5048130;28;20453;-66
2022/04/15 11:13:39;;;;;;;12.47;6.87;;;13.20;67.00;;;;;;5049198;28;20108;-66
2022/04/15 11:16:18;;;;;;;11.68;7.05;;;13.00;67.60;;;;;;5050011;28;20035;-65
2022/04/15 11:18:52;;;;;;;10.25;7.00;;;13.10;67.70;;;;;;5029531;28;20045;-65
2022/04/15 11:21:27;;;;;;;11.80;6.75;;;13.00;67.60;;;;;;5061694;28;20090;-65
2022/04/15 11:24:01;;;;;;;11.13;6.90;;;12.90;67.40;;;;;;5048392;28;20113;-65
2022/04/15 11:26:28;;;;;;;10.27;7.20;;;12.80;67.90;;;;;;5047439;28;20040;-65
2022/04/15 11:28:55;;;;;;;12.00;6.45;;;12.80;68.70;;;;;;5049238;28;20137;-66
2022/04/15 11:31:26;;;;;;;7.90;6.50;;;12.80;68.40;;;;;;5048672;28;20055;-66
2022/04/15 11:33:53;;;;;;;10.18;6.47;;;12.80;68.30;;;;;;5063503;28;20032;-65
2022/04/15 11:36:20;;;;;;;8.95;6.72;;;12.70;68.70;;;;;;5064449;28;20041;-65
2022/04/15 11:38:49;;;;;;;13.00;7.20;;;12.60;68.80;;;;;;5046256;28;20057;-65
2022/04/15 11:41:19;;;;;;;12.18;7.35;;;12.60;68.90;;;;;;5047931;28;20095;-66
2022/04/15 11:43:55;;;;;;;14.25;7.45;;;12.60;68.80;;;;;;5047800;28;20047;-66
2022/04/15 11:46:21;;;;;;;14.07;7.25;;;12.50;68.70;;;;;;5048813;28;20440;-65
2022/04/15 11:48:47;;;;;;;13.40;7.00;;;12.50;69.30;;;;;;5046952;28;20052;-65
2022/04/15 11:51:13;;;;;;;11.57;7.03;;;12.50;69.50;;;;;;5050492;28;20036;-65
2022/04/15 11:53:39;;;;;;;9.32;6.45;;;12.40;69.60;;;;;;5061864;28;20527;-65
2022/04/15 11:56:04;;;;;;;11.10;6.85;;;12.30;69.70;;;;;;5048489;28;20705;-65
2022/04/15 11:58:35;;;;;;;10.02;6.65;;;12.30;69.80;;;;;;5047107;28;20054;-65
2022/04/15 12:01:02;;;;;;;;;;;12.30;69.90;;;;;;5048998;28;20140;-65
2022/04/15 12:03:28;;;;;;;9.73;6.38;;;12.20;69.40;;;;;;5043795;28;19917;-65
2022/04/15 12:05:57;;;;;;;12.52;6.05;;;12.10;70.30;;;;;;5022290;28;20106;-65
2022/04/15 12:08:23;;;;;;;9.98;6.30;;;12.10;70.20;;;;;;5042663;28;20086;-65
2022/04/15 12:10:49;;;;;;;10.75;5.57;;;12.10;70.20;;;;;;5045651;28;20425;-65
2022/04/15 12:13:16;;;;;;;12.73;6.90;;;12.10;70.20;;;;;;5032880;28;20060;-65
2022/04/15 12:15:43;;;;;;;11.48;7.00;;;12.00;70.30;;;;;;5037268;28;20058;-64
2022/04/15 12:18:09;;;;;;;8.30;6.20;;;12.10;70.00;;;;;;5041526;28;20045;-65
2022/04/15 12:20:37;;;;;;;10.23;7.18;;;12.10;70.20;;;;;;5052933;28;20041;-65
2022/04/15 12:23:03;;;;;;;9.43;6.30;;;12.20;69.90;;;;;;5043432;28;20045;-65
2022/04/15 12:26:06;;;;;;;11.55;5.95;;;12.20;69.80;;;;;;5045103;28;20037;-65
2022/04/15 12:31:26;;;;;;;10.68;6.47;;;12.20;69.80;;;;;;5036142;28;20123;-65
2022/04/15 12:33:51;;;;;;;8.88;5.95;;;12.20;69.10;;;;;;5047608;28;20045;-64
2022/04/15 12:36:17;;;;;;;10.60;7.05;;;12.10;69.40;;;;;;5047562;28;20047;-64
2022/04/15 12:39:00;;;;;;;9.75;6.72;;;12.10;69.50;;;;;;5045139;28;20227;-65
2022/04/15 12:41:43;;;;;;;10.05;6.53;;;12.10;69.20;;;;;;5048486;28;20094;-65
2022/04/15 12:44:18;;;;;;;9.68;6.82;;;12.10;69.30;;;;;;5051069;28;20044;-65
2022/04/15 12:46:45;;;;;;;8.73;6.43;;;12.10;69.00;;;;;;5050891;28;20040;-65
2022/04/15 12:49:33;;;;;;;8.15;6.50;;;12.10;69.60;;;;;;5051776;28;20163;-65
2022/04/15 12:52:16;;;;;;;11.32;6.90;;;12.00;69.10;;;;;;5048515;28;20387;-65
2022/04/15 12:55:02;;;;;;;11.48;7.18;;;12.00;69.30;;;;;;5049297;28;20073;-65